Time;durP1;ratioP1;P1;durP2;ratioP2;P2;SDS_P1;SDS_P2;PMS_P1;PMS_P2;Temp;Humidity;BMP_temperature;BMP_pressure;BME280_temperature;BME280_humidity;BME280_pressure;Samples;Min_cycle;Max_cycle;Signal;HPM_P1;HPM_P2
2023/08/19 00:00:41;;;;;;;0.00;0.00;;;;;;;;;;6242975;28;20021;-88
2023/08/19 00:03:42;;;;;;;0.10;0.10;;;;;;;;;;6246754;28;20036;-87
2023/08/19 00:06:42;;;;;;;0.10;0.10;;;;;;;;;;6246127;28;20088;-87
2023/08/19 00:09:43;;;;;;;0.00;0.00;;;;;;;;;;6242859;28;20017;-87
2023/08/19 00:12:43;;;;;;;0.00;0.00;;;;;;;;;;6241511;28;20040;-87
2023/08/19 00:15:44;;;;;;;0.10;0.10;;;;;;;;;;6242386;28;20100;-87
2023/08/19 00:18:44;;;;;;;0.10;0.10;;;;;;;;;;6241946;28;20091;-87
2023/08/19 00:21:44;;;;;;;0.00;0.00;;;;;;;;;;6242956;28;20488;-87
2023/08/19 00:24:45;;;;;;;0.00;0.00;;;;;;;;;;6242614;28;20472;-87
2023/08/19 00:27:45;;;;;;;0.00;0.00;;;;;;;;;;6243219;28;20089;-87
2023/08/19 00:30:45;;;;;;;0.00;0.00;;;;;;;;;;6243484;28;20029;-87
2023/08/19 00:33:47;;;;;;;0.00;0.00;;;;;;;;;;6242773;28;20013;-86
2023/08/19 00:36:47;;;;;;;;;;;;;;;;;;6243975;28;20424;-87
2023/08/19 00:39:47;;;;;;;0.00;0.00;;;;;;;;;;6251804;28;19912;-87
2023/08/19 00:42:47;;;;;;;0.00;0.00;;;;;;;;;;6247491;28;20103;-87
2023/08/19 00:45:49;;;;;;;0.00;0.00;;;;;;;;;;6229300;28;20064;-86
2023/08/19 00:48:49;;;;;;;0.10;0.10;;;;;;;;;;6247769;28;20025;-85
2023/08/19 00:51:50;;;;;;;0.00;0.00;;;;;;;;;;6254133;28;20123;-84
2023/08/19 00:54:50;;;;;;;0.00;0.00;;;;;;;;;;6248357;28;20025;-85
2023/08/19 00:57:52;;;;;;;0.10;0.10;;;;;;;;;;6247363;28;20025;-84
2023/08/19 01:00:53;;;;;;;0.05;0.05;;;;;;;;;;6246996;28;20022;-85
2023/08/19 01:03:53;;;;;;;0.10;0.10;;;;;;;;;;6216784;28;20040;-86
2023/08/19 01:07:15;;;;;;;0.00;0.00;;;;;;;;;;6248106;28;20029;-86
2023/08/19 01:10:30;;;;;;;0.00;0.00;;;;;;;;;;6243319;28;20018;-85
2023/08/19 01:13:34;;;;;;;0.10;0.10;;;;;;;;;;6247275;28;20030;-85
2023/08/19 01:16:35;;;;;;;0.00;0.00;;;;;;;;;;6247484;28;20033;-85
2023/08/19 01:19:37;;;;;;;0.00;0.00;;;;;;;;;;6247218;28;20075;-85
2023/08/19 01:22:57;;;;;;;0.00;0.00;;;;;;;;;;6246817;28;20056;-85
2023/08/19 01:25:58;;;;;;;0.00;0.00;;;;;;;;;;6205093;28;20107;-85
2023/08/19 01:28:59;;;;;;;0.00;0.00;;;;;;;;;;6246141;28;20025;-84
2023/08/19 01:32:00;;;;;;;0.00;0.00;;;;;;;;;;6245415;28;20052;-84
2023/08/19 01:35:01;;;;;;;0.00;0.00;;;;;;;;;;6246027;28;20685;-84
2023/08/19 01:38:07;;;;;;;0.00;0.00;;;;;;;;;;6244879;28;20022;-84
2023/08/19 01:41:08;;;;;;;0.00;0.00;;;;;;;;;;6245970;28;20025;-84
2023/08/19 01:44:09;;;;;;;0.00;0.00;;;;;;;;;;6245877;28;20018;-84
2023/08/19 01:47:18;;;;;;;0.00;0.00;;;;;;;;;;6245577;28;20372;-84
2023/08/19 01:50:19;;;;;;;0.10;0.10;;;;;;;;;;6245745;28;20046;-84
2023/08/19 01:53:19;;;;;;;0.10;0.10;;;;;;;;;;6245866;28;20076;-84
2023/08/19 01:56:21;;;;;;;0.00;0.00;;;;;;;;;;6228355;28;20049;-84
2023/08/19 01:59:21;;;;;;;0.10;0.10;;;;;;;;;;6243342;28;20191;-76
2023/08/19 02:02:21;;;;;;;0.00;0.00;;;;;;;;;;6251700;28;20040;-76
2023/08/19 02:05:22;;;;;;;0.00;0.00;;;;;;;;;;6244985;28;20120;-76
2023/08/19 02:08:22;;;;;;;0.00;0.00;;;;;;;;;;6231288;28;20029;-76
2023/08/19 02:11:23;;;;;;;0.10;0.10;;;;;;;;;;6245213;28;20515;-76
2023/08/19 02:14:23;;;;;;;0.00;0.00;;;;;;;;;;6247743;28;20792;-76
2023/08/19 02:17:23;;;;;;;0.10;0.10;;;;;;;;;;6227861;28;20036;-84
2023/08/19 02:20:23;;;;;;;0.00;0.00;;;;;;;;;;6245238;28;20017;-84
2023/08/19 02:23:24;;;;;;;0.00;0.00;;;;;;;;;;6227637;28;20072;-83
2023/08/19 02:26:24;;;;;;;0.00;0.00;;;;;;;;;;6245482;28;20099;-84
2023/08/19 02:29:24;;;;;;;0.00;0.00;;;;;;;;;;6246586;28;20009;-84
2023/08/19 02:32:25;;;;;;;0.10;0.10;;;;;;;;;;6245191;28;20062;-84
2023/08/19 02:35:25;;;;;;;0.10;0.10;;;;;;;;;;6244688;28;20373;-84
2023/08/19 02:38:25;;;;;;;0.00;0.00;;;;;;;;;;6251727;28;20024;-84
2023/08/19 02:41:25;;;;;;;0.00;0.00;;;;;;;;;;6245089;28;20026;-84
2023/08/19 02:44:26;;;;;;;0.10;0.10;;;;;;;;;;6246531;28;20025;-84
2023/08/19 02:47:26;;;;;;;0.10;0.10;;;;;;;;;;6226379;28;20013;-84
2023/08/19 02:50:26;;;;;;;0.00;0.00;;;;;;;;;;6244996;28;20460;-83
2023/08/19 02:53:28;;;;;;;0.00;0.00;;;;;;;;;;6244800;28;20026;-84
2023/08/19 02:56:28;;;;;;;0.10;0.10;;;;;;;;;;6225323;28;20045;-84
2023/08/19 02:59:29;;;;;;;0.00;0.00;;;;;;;;;;6244518;28;20068;-84
2023/08/19 03:02:29;;;;;;;0.00;0.00;;;;;;;;;;6244908;28;20025;-84
2023/08/19 03:05:29;;;;;;;0.10;0.10;;;;;;;;;;6245144;28;20083;-84
2023/08/19 03:08:31;;;;;;;0.10;0.10;;;;;;;;;;6239818;28;20396;-83
2023/08/19 03:11:31;;;;;;;0.00;0.00;;;;;;;;;;6227201;28;20076;-83
2023/08/19 03:14:31;;;;;;;0.00;0.00;;;;;;;;;;6247090;28;20093;-83
2023/08/19 03:17:31;;;;;;;0.10;0.10;;;;;;;;;;6243985;28;20025;-84
2023/08/19 03:20:32;;;;;;;0.10;0.10;;;;;;;;;;6244608;28;20274;-84
2023/08/19 03:23:32;;;;;;;0.00;0.00;;;;;;;;;;6244567;28;20021;-83
2023/08/19 03:26:33;;;;;;;0.10;0.10;;;;;;;;;;6245015;28;20022;-82
2023/08/19 03:29:33;;;;;;;0.00;0.00;;;;;;;;;;6244281;28;20022;-82
2023/08/19 03:32:33;;;;;;;0.00;0.00;;;;;;;;;;6244749;28;20019;-84
2023/08/19 03:35:35;;;;;;;0.10;0.10;;;;;;;;;;6245443;28;20028;-84
2023/08/19 03:38:35;;;;;;;;;;;;;;;;;;6242990;28;20116;-82
2023/08/19 03:41:35;;;;;;;0.10;0.10;;;;;;;;;;6244957;28;19909;-83
2023/08/19 03:44:37;;;;;;;0.00;0.00;;;;;;;;;;6243881;28;20013;-83
2023/08/19 03:47:37;;;;;;;;;;;;;;;;;;6245270;28;20391;-83
2023/08/19 03:50:37;;;;;;;0.10;0.10;;;;;;;;;;6244468;28;20034;-83
2023/08/19 03:53:37;;;;;;;0.00;0.00;;;;;;;;;;6245127;28;20033;-84
2023/08/19 03:56:37;;;;;;;0.00;0.00;;;;;;;;;;6239825;28;20017;-83
2023/08/19 03:59:39;;;;;;;0.00;0.00;;;;;;;;;;6245018;28;20025;-84
2023/08/19 04:02:39;;;;;;;0.00;0.00;;;;;;;;;;6243648;28;20036;-84
2023/08/19 04:05:40;;;;;;;0.08;0.08;;;;;;;;;;6245133;28;20025;-85
2023/08/19 04:08:40;;;;;;;0.00;0.00;;;;;;;;;;6236976;28;20041;-84
2023/08/19 04:11:41;;;;;;;0.00;0.00;;;;;;;;;;6241481;28;20041;-85
2023/08/19 04:14:42;;;;;;;0.00;0.00;;;;;;;;;;6242488;28;20029;-84
2023/08/19 04:17:43;;;;;;;0.00;0.00;;;;;;;;;;6241793;28;20059;-84
2023/08/19 04:20:43;;;;;;;0.00;0.00;;;;;;;;;;6243341;28;20022;-84
2023/08/19 04:23:43;;;;;;;0.00;0.00;;;;;;;;;;6224493;28;20067;-84
2023/08/19 04:26:44;;;;;;;0.00;0.00;;;;;;;;;;6242257;28;20108;-84
2023/08/19 04:29:45;;;;;;;0.10;0.10;;;;;;;;;;6243652;28;20056;-84
2023/08/19 04:32:46;;;;;;;0.10;0.10;;;;;;;;;;6242124;28;20017;-84
2023/08/19 04:35:47;;;;;;;0.00;0.00;;;;;;;;;;6242784;28;20039;-85
2023/08/19 04:38:48;;;;;;;0.00;0.00;;;;;;;;;;6223960;28;20112;-84
2023/08/19 04:41:49;;;;;;;0.00;0.00;;;;;;;;;;6224131;28;20400;-84
2023/08/19 04:44:50;;;;;;;0.10;0.10;;;;;;;;;;6247294;28;20425;-83
2023/08/19 04:47:53;;;;;;;0.00;0.00;;;;;;;;;;6242398;28;20033;-83
2023/08/19 04:50:53;;;;;;;0.00;0.00;;;;;;;;;;6242218;28;20046;-83
2023/08/19 04:53:53;;;;;;;0.00;0.00;;;;;;;;;;6242457;28;20025;-83
2023/08/19 04:56:54;;;;;;;0.00;0.00;;;;;;;;;;6242015;28;20076;-82
2023/08/19 04:59:55;;;;;;;0.00;0.00;;;;;;;;;;6241904;28;20085;-84
2023/08/19 05:02:55;;;;;;;0.10;0.10;;;;;;;;;;6242134;28;20055;-84
2023/08/19 05:05:55;;;;;;;0.00;0.00;;;;;;;;;;6244851;28;20024;-85
2023/08/19 05:08:55;;;;;;;0.00;0.00;;;;;;;;;;6241425;28;20674;-84
2023/08/19 05:11:56;;;;;;;0.00;0.00;;;;;;;;;;6242242;28;20014;-83
2023/08/19 05:14:56;;;;;;;0.00;0.00;;;;;;;;;;6241652;28;20032;-84
2023/08/19 05:17:57;;;;;;;0.00;0.00;;;;;;;;;;6241199;28;20021;-84
2023/08/19 05:20:57;;;;;;;0.00;0.00;;;;;;;;;;6242281;28;20834;-83
2023/08/19 05:23:57;;;;;;;0.00;0.00;;;;;;;;;;6245046;28;20295;-83
2023/08/19 05:26:57;;;;;;;0.00;0.00;;;;;;;;;;6246295;28;20021;-84
2023/08/19 05:29:57;;;;;;;0.00;0.00;;;;;;;;;;6246130;28;20032;-82
2023/08/19 05:32:59;;;;;;;0.00;0.00;;;;;;;;;;6246935;28;20064;-84
2023/08/19 05:35:59;;;;;;;;;;;;;;;;;;6246624;28;20025;-84
2023/08/19 05:38:59;;;;;;;0.00;0.00;;;;;;;;;;6251538;28;19905;-84
2023/08/19 05:41:59;;;;;;;0.00;0.00;;;;;;;;;;6250054;28;20029;-82
2023/08/19 05:45:00;;;;;;;0.00;0.00;;;;;;;;;;6246175;28;20029;-84
2023/08/19 05:48:01;;;;;;;0.00;0.00;;;;;;;;;;6246739;28;20079;-83
2023/08/19 05:51:01;;;;;;;0.00;0.00;;;;;;;;;;6246168;28;20136;-83
2023/08/19 05:54:02;;;;;;;0.00;0.00;;;;;;;;;;6245590;28;20028;-83
2023/08/19 05:57:02;;;;;;;0.00;0.00;;;;;;;;;;6245880;28;20056;-84
2023/08/19 06:00:03;;;;;;;0.00;0.00;;;;;;;;;;6250699;28;20026;-84
2023/08/19 06:03:03;;;;;;;0.00;0.00;;;;;;;;;;6245534;28;20029;-84
2023/08/19 06:06:05;;;;;;;0.00;0.00;;;;;;;;;;6249936;28;20025;-84
2023/08/19 06:09:05;;;;;;;0.00;0.00;;;;;;;;;;6245690;28;20292;-84
2023/08/19 06:12:05;;;;;;;0.00;0.00;;;;;;;;;;6245267;28;20021;-85
2023/08/19 06:15:07;;;;;;;0.00;0.00;;;;;;;;;;6239196;28;20574;-85
2023/08/19 06:18:07;;;;;;;0.00;0.00;;;;;;;;;;6245165;28;20252;-85
2023/08/19 06:21:09;;;;;;;0.00;0.00;;;;;;;;;;6245290;28;21002;-85
2023/08/19 06:24:09;;;;;;;0.00;0.00;;;;;;;;;;6245027;28;20463;-86
2023/08/19 06:27:10;;;;;;;0.00;0.00;;;;;;;;;;6242876;28;20038;-86
2023/08/19 06:30:11;;;;;;;0.00;0.00;;;;;;;;;;6242844;28;20018;-84
2023/08/19 06:33:12;;;;;;;0.00;0.00;;;;;;;;;;6245340;28;20026;-84
2023/08/19 06:36:12;;;;;;;;;;;;;;;;;;6243998;28;20464;-84
2023/08/19 06:39:18;;;;;;;0.00;0.00;;;;;;;;;;6252554;28;19912;-85
2023/08/19 06:42:18;;;;;;;0.00;0.00;;;;;;;;;;6247657;28;20036;-86
2023/08/19 06:45:18;;;;;;;;;;;;;;;;;;6244863;28;20475;-85
2023/08/19 06:48:20;;;;;;;0.00;0.00;;;;;;;;;;6242039;28;19909;-85
2023/08/19 06:51:20;;;;;;;0.00;0.00;;;;;;;;;;6246850;28;20076;-86
2023/08/19 06:54:21;;;;;;;0.00;0.00;;;;;;;;;;6244697;28;20013;-86
2023/08/19 06:57:28;;;;;;;0.00;0.00;;;;;;;;;;6244517;28;20488;-77
2023/08/19 07:00:28;;;;;;;0.00;0.00;;;;;;;;;;6226003;28;20056;-76
2023/08/19 07:03:30;;;;;;;0.00;0.00;;;;;;;;;;6241974;28;20449;-77
2023/08/19 07:06:31;;;;;;;0.00;0.00;;;;;;;;;;6241704;28;20287;-77
2023/08/19 07:09:33;;;;;;;0.00;0.00;;;;;;;;;;6245863;28;20041;-77
2023/08/19 07:12:34;;;;;;;0.00;0.00;;;;;;;;;;6243818;28;20022;-77
2023/08/19 07:15:35;;;;;;;0.00;0.00;;;;;;;;;;6243569;28;20506;-77
2023/08/19 07:18:38;;;;;;;0.00;0.00;;;;;;;;;;6243264;28;20765;-76
2023/08/19 07:21:38;;;;;;;0.00;0.00;;;;;;;;;;6225627;28;20124;-76
2023/08/19 07:24:40;;;;;;;0.00;0.00;;;;;;;;;;6243537;28;20498;-76
2023/08/19 07:27:44;;;;;;;0.00;0.00;;;;;;;;;;6241519;28;20041;-77
2023/08/19 07:30:44;;;;;;;0.00;0.00;;;;;;;;;;6242924;28;20018;-76
2023/08/19 07:33:45;;;;;;;0.00;0.00;;;;;;;;;;6242600;28;20033;-76
2023/08/19 07:36:45;;;;;;;0.00;0.00;;;;;;;;;;6242446;28;20029;-76
2023/08/19 07:39:45;;;;;;;0.00;0.00;;;;;;;;;;6248437;28;20101;-76
2023/08/19 07:42:45;;;;;;;0.00;0.00;;;;;;;;;;6224907;28;20494;-76
2023/08/19 07:45:45;;;;;;;0.00;0.00;;;;;;;;;;6241171;28;20029;-77
2023/08/19 07:48:46;;;;;;;0.00;0.00;;;;;;;;;;6248513;28;20030;-77
2023/08/19 07:51:47;;;;;;;0.00;0.00;;;;;;;;;;6223868;28;20127;-77
2023/08/19 07:54:47;;;;;;;0.00;0.00;;;;;;;;;;6242009;28;20156;-76
2023/08/19 07:57:47;;;;;;;0.00;0.00;;;;;;;;;;6241881;28;20052;-77
2023/08/19 08:00:47;;;;;;;0.00;0.00;;;;;;;;;;6242436;28;20474;-77
2023/08/19 08:03:48;;;;;;;0.00;0.00;;;;;;;;;;6241147;28;20040;-76
2023/08/19 08:06:49;;;;;;;0.00;0.00;;;;;;;;;;6247715;28;20024;-77
2023/08/19 08:09:49;;;;;;;0.00;0.00;;;;;;;;;;6243245;28;20072;-76
2023/08/19 08:12:49;;;;;;;0.00;0.00;;;;;;;;;;6243226;28;20038;-76
2023/08/19 08:15:49;;;;;;;0.00;0.00;;;;;;;;;;6242697;28;20048;-77
2023/08/19 08:18:50;;;;;;;0.00;0.00;;;;;;;;;;6242695;28;20025;-76
2023/08/19 08:21:50;;;;;;;0.00;0.00;;;;;;;;;;6225166;28;20029;-76
2023/08/19 08:24:51;;;;;;;0.00;0.00;;;;;;;;;;6242425;28;20030;-76
2023/08/19 08:27:51;;;;;;;0.00;0.00;;;;;;;;;;6242035;28;20045;-76
2023/08/19 08:30:51;;;;;;;0.00;0.00;;;;;;;;;;6243592;28;20128;-76
2023/08/19 08:33:51;;;;;;;0.00;0.00;;;;;;;;;;6246265;28;20805;-76
2023/08/19 08:36:52;;;;;;;0.00;0.00;;;;;;;;;;6244447;28;20081;-76
2023/08/19 08:39:52;;;;;;;0.00;0.00;;;;;;;;;;6245390;28;20745;-76
2023/08/19 08:42:53;;;;;;;0.00;0.00;;;;;;;;;;6241947;28;20025;-76
2023/08/19 08:45:54;;;;;;;0.00;0.00;;;;;;;;;;6224051;28;20394;-76
2023/08/19 08:48:55;;;;;;;0.00;0.00;;;;;;;;;;6241943;28;20076;-76
2023/08/19 08:51:56;;;;;;;0.00;0.00;;;;;;;;;;6241425;28;20040;-77
2023/08/19 08:54:57;;;;;;;0.00;0.00;;;;;;;;;;6224095;28;20021;-77
2023/08/19 08:57:57;;;;;;;0.00;0.00;;;;;;;;;;6243471;28;20028;-77
2023/08/19 09:00:58;;;;;;;0.00;0.00;;;;;;;;;;6246873;28;20365;-77
2023/08/19 09:04:02;;;;;;;0.00;0.00;;;;;;;;;;6229153;28;20021;-75
2023/08/19 09:07:06;;;;;;;0.00;0.00;;;;;;;;;;6252817;28;20017;-75
2023/08/19 09:10:18;;;;;;;0.00;0.00;;;;;;;;;;6246301;28;20017;-76
2023/08/19 09:13:20;;;;;;;0.00;0.00;;;;;;;;;;6245560;28;20502;-75
2023/08/19 09:16:21;;;;;;;0.00;0.00;;;;;;;;;;6235251;28;20028;-76
2023/08/19 09:19:21;;;;;;;0.00;0.00;;;;;;;;;;6242163;28;20032;-86
2023/08/19 09:22:23;;;;;;;0.00;0.00;;;;;;;;;;6247663;28;20045;-85
2023/08/19 09:25:29;;;;;;;0.00;0.00;;;;;;;;;;6227464;28;20040;-86
2023/08/19 09:28:32;;;;;;;0.00;0.00;;;;;;;;;;6246204;28;20025;-86
2023/08/19 09:31:32;;;;;;;0.00;0.00;;;;;;;;;;6228526;28;20020;-86
2023/08/19 09:34:32;;;;;;;0.00;0.00;;;;;;;;;;6246442;28;20692;-86
2023/08/19 09:37:33;;;;;;;0.00;0.00;;;;;;;;;;6252967;28;20032;-86
2023/08/19 09:40:34;;;;;;;0.00;0.00;;;;;;;;;;6248988;28;20665;-86
2023/08/19 09:43:40;;;;;;;0.00;0.00;;;;;;;;;;6251740;28;20124;-85
2023/08/19 09:46:42;;;;;;;0.00;0.00;;;;;;;;;;6246055;28;20025;-86
2023/08/19 09:49:42;;;;;;;0.00;0.00;;;;;;;;;;6245846;28;20029;-87
2023/08/19 09:52:52;;;;;;;0.00;0.00;;;;;;;;;;6245933;28;20118;-88
2023/08/19 09:55:52;;;;;;;0.00;0.00;;;;;;;;;;6244051;28;20629;-86
2023/08/19 09:58:53;;;;;;;0.00;0.00;;;;;;;;;;6245710;28;20100;-86
2023/08/19 10:01:53;;;;;;;0.00;0.00;;;;;;;;;;6245650;28;20472;-87
2023/08/19 10:04:55;;;;;;;0.00;0.00;;;;;;;;;;6246254;28;20105;-86
2023/08/19 10:08:01;;;;;;;0.00;0.00;;;;;;;;;;6245621;28;20017;-86
2023/08/19 10:11:02;;;;;;;0.00;0.00;;;;;;;;;;6242128;28;20449;-86
2023/08/19 10:14:03;;;;;;;0.00;0.00;;;;;;;;;;6245019;28;20025;-86
2023/08/19 10:17:07;;;;;;;0.00;0.00;;;;;;;;;;6247051;28;20108;-85
2023/08/19 10:20:13;;;;;;;0.00;0.00;;;;;;;;;;6243077;28;20112;-86
2023/08/19 10:23:14;;;;;;;0.00;0.00;;;;;;;;;;6245249;28;20053;-86
2023/08/19 10:26:15;;;;;;;0.00;0.00;;;;;;;;;;6244827;28;20087;-86
2023/08/19 10:29:15;;;;;;;0.00;0.00;;;;;;;;;;6229903;28;20022;-86
2023/08/19 10:32:26;;;;;;;0.00;0.00;;;;;;;;;;6254832;28;20021;-86
2023/08/19 10:35:26;;;;;;;0.00;0.00;;;;;;;;;;6261425;28;20064;-86
2023/08/19 10:38:45;;;;;;;0.00;0.00;;;;;;;;;;6250244;28;20033;-76
2023/08/19 10:41:49;;;;;;;0.00;0.00;;;;;;;;;;6249644;28;20107;-75
2023/08/19 10:44:51;;;;;;;0.00;0.00;;;;;;;;;;6244480;28;20401;-75
2023/08/19 10:47:52;;;;;;;0.00;0.00;;;;;;;;;;6243276;28;20072;-76
2023/08/19 10:50:55;;;;;;;0.00;0.00;;;;;;;;;;6245222;28;20512;-76
2023/08/19 10:54:06;;;;;;;0.00;0.00;;;;;;;;;;6244474;28;20860;-75
2023/08/19 10:57:11;;;;;;;0.00;0.00;;;;;;;;;;6244696;28;20495;-75
2023/08/19 11:00:12;;;;;;;0.00;0.00;;;;;;;;;;6241013;28;20665;-76
2023/08/19 11:03:14;;;;;;;0.00;0.00;;;;;;;;;;6236354;28;20037;-76
2023/08/19 11:06:14;;;;;;;0.00;0.00;;;;;;;;;;6229200;28;20075;-76
2023/08/19 11:09:14;;;;;;;0.00;0.00;;;;;;;;;;6243751;28;20029;-75
2023/08/19 11:12:16;;;;;;;0.00;0.00;;;;;;;;;;6225401;28;20083;-75
2023/08/19 11:15:24;;;;;;;0.00;0.00;;;;;;;;;;6219887;28;20025;-75
2023/08/19 11:18:24;;;;;;;0.00;0.00;;;;;;;;;;6225438;28;20029;-75
2023/08/19 11:21:26;;;;;;;0.00;0.00;;;;;;;;;;6243064;28;20028;-75
2023/08/19 11:24:33;;;;;;;0.00;0.00;;;;;;;;;;6243933;28;20029;-75
2023/08/19 11:27:33;;;;;;;0.00;0.00;;;;;;;;;;6247748;28;20037;-75
2023/08/19 11:30:35;;;;;;;0.00;0.00;;;;;;;;;;6244808;28;20558;-75
2023/08/19 11:33:36;;;;;;;0.00;0.00;;;;;;;;;;6242620;28;20040;-75
2023/08/19 11:36:36;;;;;;;0.00;0.00;;;;;;;;;;6244340;28;20133;-75
2023/08/19 11:39:37;;;;;;;0.00;0.00;;;;;;;;;;6247891;28;20020;-75
2023/08/19 11:42:37;;;;;;;0.00;0.00;;;;;;;;;;6240347;28;20075;-74
2023/08/19 11:45:38;;;;;;;0.00;0.00;;;;;;;;;;6239141;28;20543;-76
2023/08/19 11:48:39;;;;;;;0.00;0.00;;;;;;;;;;6236870;28;20029;-75
2023/08/19 11:51:40;;;;;;;0.00;0.00;;;;;;;;;;6236885;28;20697;-75
2023/08/19 11:54:40;;;;;;;0.00;0.00;;;;;;;;;;6237621;28;20079;-75
2023/08/19 11:57:40;;;;;;;0.00;0.00;;;;;;;;;;6238866;28;20548;-85
2023/08/19 12:00:41;;;;;;;0.00;0.00;;;;;;;;;;6239091;28;20025;-85
2023/08/19 12:03:42;;;;;;;0.00;0.00;;;;;;;;;;6225233;28;20036;-86
2023/08/19 12:06:47;;;;;;;0.00;0.00;;;;;;;;;;6239833;28;20033;-85
2023/08/19 12:09:47;;;;;;;0.00;0.00;;;;;;;;;;6241628;28;20025;-85
2023/08/19 12:12:58;;;;;;;0.00;0.00;;;;;;;;;;6235616;28;20396;-84
2023/08/19 12:15:58;;;;;;;0.00;0.00;;;;;;;;;;6241569;28;20040;-85
2023/08/19 12:18:58;;;;;;;0.00;0.00;;;;;;;;;;6242841;28;20684;-85
2023/08/19 12:21:58;;;;;;;0.00;0.00;;;;;;;;;;6242237;28;20052;-85
2023/08/19 12:24:58;;;;;;;0.00;0.00;;;;;;;;;;6238690;28;20310;-86
2023/08/19 12:27:59;;;;;;;0.00;0.00;;;;;;;;;;6240077;28;20518;-86
2023/08/19 12:30:59;;;;;;;0.00;0.00;;;;;;;;;;6238180;28;20108;-86
2023/08/19 12:34:00;;;;;;;0.00;0.00;;;;;;;;;;6240057;28;20029;-87
2023/08/19 12:37:00;;;;;;;0.00;0.00;;;;;;;;;;6236887;28;20048;-87
2023/08/19 12:40:00;;;;;;;0.00;0.00;;;;;;;;;;6245269;28;20452;-86
2023/08/19 12:43:00;;;;;;;0.00;0.00;;;;;;;;;;6241498;28;20108;-87
2023/08/19 12:46:00;;;;;;;0.00;0.00;;;;;;;;;;6239669;28;20025;-86
2023/08/19 12:49:01;;;;;;;0.00;0.00;;;;;;;;;;6243498;28;20091;-87
2023/08/19 12:52:01;;;;;;;0.00;0.00;;;;;;;;;;6241296;28;20068;-87
2023/08/19 12:55:03;;;;;;;0.00;0.00;;;;;;;;;;6226562;28;20017;-86
2023/08/19 12:58:04;;;;;;;0.00;0.00;;;;;;;;;;6237702;28;20013;-88
2023/08/19 13:01:04;;;;;;;0.00;0.00;;;;;;;;;;6237035;28;20100;-88
2023/08/19 13:04:05;;;;;;;0.00;0.00;;;;;;;;;;6240669;28;20068;-87
2023/08/19 13:07:05;;;;;;;0.00;0.00;;;;;;;;;;6244002;28;20021;-86
2023/08/19 13:10:06;;;;;;;0.00;0.00;;;;;;;;;;6241051;28;20021;-87
2023/08/19 13:13:06;;;;;;;0.00;0.00;;;;;;;;;;6245571;28;20029;-87
2023/08/19 13:16:06;;;;;;;0.00;0.00;;;;;;;;;;6242069;28;20108;-87
2023/08/19 13:19:07;;;;;;;0.00;0.00;;;;;;;;;;6242644;28;20495;-88
2023/08/19 13:22:07;;;;;;;0.00;0.00;;;;;;;;;;6242118;28;20057;-88
2023/08/19 13:25:08;;;;;;;0.00;0.00;;;;;;;;;;6236041;28;20666;-88
2023/08/19 13:28:09;;;;;;;0.00;0.00;;;;;;;;;;6236966;28;20317;-88
2023/08/19 13:31:11;;;;;;;0.00;0.00;;;;;;;;;;6242073;28;20026;-86
2023/08/19 13:34:11;;;;;;;0.00;0.00;;;;;;;;;;6242168;28;20392;-85
2023/08/19 13:37:11;;;;;;;0.00;0.00;;;;;;;;;;6245362;28;20132;-87
2023/08/19 13:40:12;;;;;;;0.00;0.00;;;;;;;;;;6247519;28;21137;-87
2023/08/19 13:43:12;;;;;;;0.00;0.00;;;;;;;;;;6241813;28;20112;-86
2023/08/19 13:46:12;;;;;;;0.00;0.00;;;;;;;;;;6246035;28;20029;-87
2023/08/19 13:49:12;;;;;;;0.00;0.00;;;;;;;;;;6246180;28;20043;-86
2023/08/19 13:52:33;;;;;;;0.00;0.00;;;;;;;;;;6228677;28;20060;-87
2023/08/19 13:55:33;;;;;;;;;;;;;;;;;;6243548;28;20044;-87
2023/08/19 13:58:33;;;;;;;0.00;0.00;;;;;;;;;;6247011;28;20326;-87
2023/08/19 14:01:34;;;;;;;0.00;0.00;;;;;;;;;;6229077;28;20025;-88
2023/08/19 14:04:34;;;;;;;0.00;0.00;;;;;;;;;;6245280;28;20068;-87
2023/08/19 14:07:34;;;;;;;0.00;0.00;;;;;;;;;;6247099;28;20843;-87
2023/08/19 14:10:34;;;;;;;0.00;0.00;;;;;;;;;;6228042;28;20049;-86
2023/08/19 14:13:35;;;;;;;0.00;0.00;;;;;;;;;;6251441;28;20021;-87
2023/08/19 14:16:35;;;;;;;0.00;0.00;;;;;;;;;;6245581;28;20029;-86
2023/08/19 14:19:36;;;;;;;0.00;0.00;;;;;;;;;;6249715;28;20499;-87
2023/08/19 14:22:37;;;;;;;0.00;0.00;;;;;;;;;;6241075;28;20033;-87
2023/08/19 14:25:38;;;;;;;0.00;0.00;;;;;;;;;;6245302;28;20032;-87
2023/08/19 14:28:38;;;;;;;0.00;0.00;;;;;;;;;;6246535;28;20017;-87
2023/08/19 14:31:38;;;;;;;0.00;0.00;;;;;;;;;;6244231;28;20025;-86
2023/08/19 14:34:38;;;;;;;0.00;0.00;;;;;;;;;;6244272;28;20055;-86
2023/08/19 14:37:38;;;;;;;0.00;0.00;;;;;;;;;;6244725;28;20025;-86
2023/08/19 14:40:39;;;;;;;0.00;0.00;;;;;;;;;;6245429;28;20021;-87
2023/08/19 14:43:39;;;;;;;0.00;0.00;;;;;;;;;;6244347;28;20021;-87
2023/08/19 14:46:40;;;;;;;0.00;0.00;;;;;;;;;;6245059;28;20056;-87
2023/08/19 14:49:40;;;;;;;0.00;0.00;;;;;;;;;;6243315;28;20499;-87
2023/08/19 14:52:40;;;;;;;0.00;0.00;;;;;;;;;;6244347;28;20050;-87
2023/08/19 14:55:41;;;;;;;0.00;0.00;;;;;;;;;;6225765;28;20025;-86
2023/08/19 14:58:41;;;;;;;0.00;0.00;;;;;;;;;;6243496;28;20172;-88
2023/08/19 15:01:41;;;;;;;0.00;0.00;;;;;;;;;;6244019;28;20097;-88
2023/08/19 15:04:41;;;;;;;0.00;0.00;;;;;;;;;;6243987;28;20379;-87
2023/08/19 15:07:41;;;;;;;0.00;0.00;;;;;;;;;;6248005;28;20025;-87
2023/08/19 15:10:42;;;;;;;0.00;0.00;;;;;;;;;;6225974;28;20052;-87
2023/08/19 15:13:42;;;;;;;0.00;0.00;;;;;;;;;;6243521;28;20267;-87
2023/08/19 15:16:42;;;;;;;0.00;0.00;;;;;;;;;;6221419;28;20026;-86
2023/08/19 15:19:43;;;;;;;0.00;0.00;;;;;;;;;;6243553;28;20487;-85
2023/08/19 15:22:43;;;;;;;0.00;0.00;;;;;;;;;;6244324;28;20442;-87
2023/08/19 15:25:43;;;;;;;0.00;0.00;;;;;;;;;;6251744;28;20147;-87
2023/08/19 15:28:43;;;;;;;0.00;0.00;;;;;;;;;;6225878;28;20028;-87
2023/08/19 15:31:44;;;;;;;0.00;0.00;;;;;;;;;;6246262;28;20013;-85
2023/08/19 15:34:44;;;;;;;0.00;0.00;;;;;;;;;;6223983;28;20052;-86
2023/08/19 15:37:44;;;;;;;0.00;0.00;;;;;;;;;;6247226;28;20021;-88
2023/08/19 15:40:44;;;;;;;0.00;0.00;;;;;;;;;;6242731;28;20299;-87
2023/08/19 15:43:46;;;;;;;0.00;0.00;;;;;;;;;;6246950;28;20029;-87
2023/08/19 15:46:46;;;;;;;0.00;0.00;;;;;;;;;;6241742;28;20038;-86
2023/08/19 15:49:46;;;;;;;0.00;0.00;;;;;;;;;;6242269;28;20048;-88
2023/08/19 15:52:47;;;;;;;0.00;0.00;;;;;;;;;;6244115;28;20072;-87
2023/08/19 15:55:47;;;;;;;0.00;0.00;;;;;;;;;;6242693;28;20029;-88
2023/08/19 15:58:48;;;;;;;0.00;0.00;;;;;;;;;;6234389;28;20380;-88
2023/08/19 16:01:48;;;;;;;0.00;0.00;;;;;;;;;;6242408;28;20059;-87
2023/08/19 16:04:49;;;;;;;0.00;0.00;;;;;;;;;;6242502;28;20025;-88
2023/08/19 16:07:49;;;;;;;0.00;0.00;;;;;;;;;;6249227;28;20025;-88
2023/08/19 16:10:58;;;;;;;0.00;0.00;;;;;;;;;;6242315;28;20024;-88
2023/08/19 16:13:58;;;;;;;0.00;0.00;;;;;;;;;;6241706;28;20056;-88
2023/08/19 16:16:59;;;;;;;0.00;0.00;;;;;;;;;;6242192;28;20030;-88
2023/08/19 16:19:59;;;;;;;0.00;0.00;;;;;;;;;;6229959;28;20025;-87
2023/08/19 16:22:59;;;;;;;0.00;0.00;;;;;;;;;;6242106;28;20026;-88
2023/08/19 16:25:59;;;;;;;0.00;0.00;;;;;;;;;;6242104;28;20083;-88
2023/08/19 16:29:00;;;;;;;0.00;0.00;;;;;;;;;;6244613;28;20024;-88
2023/08/19 16:32:01;;;;;;;0.00;0.00;;;;;;;;;;6242203;28;20025;-87
2023/08/19 16:35:01;;;;;;;0.00;0.00;;;;;;;;;;6235346;28;21850;-86
2023/08/19 16:38:03;;;;;;;0.00;0.00;;;;;;;;;;6253311;28;20021;-87
2023/08/19 16:41:05;;;;;;;0.00;0.00;;;;;;;;;;6243959;28;20044;-87
2023/08/19 16:44:05;;;;;;;0.00;0.00;;;;;;;;;;6241331;28;20030;-87
2023/08/19 16:47:06;;;;;;;0.00;0.00;;;;;;;;;;6242247;28;20128;-87
2023/08/19 16:50:07;;;;;;;0.00;0.00;;;;;;;;;;6223856;28;20013;-87
2023/08/19 16:53:07;;;;;;;0.00;0.00;;;;;;;;;;6246332;28;20579;-87
2023/08/19 16:56:08;;;;;;;0.00;0.00;;;;;;;;;;6239582;28;20017;-87
2023/08/19 16:59:08;;;;;;;0.00;0.00;;;;;;;;;;6242836;28;20048;-87
2023/08/19 17:02:08;;;;;;;0.00;0.00;;;;;;;;;;6242049;28;20404;-87
2023/08/19 17:05:08;;;;;;;0.00;0.00;;;;;;;;;;6242427;28;20028;-87
2023/08/19 17:08:08;;;;;;;;;;;;;;;;;;6245609;28;20026;-87
2023/08/19 17:11:10;;;;;;;0.00;0.00;;;;;;;;;;6241960;28;19912;-87
2023/08/19 17:14:10;;;;;;;0.00;0.00;;;;;;;;;;6241665;28;20021;-87
2023/08/19 17:17:11;;;;;;;;;;;;;;;;;;6224966;28;20021;-87
2023/08/19 17:20:13;;;;;;;0.00;0.00;;;;;;;;;;6243408;28;19909;-87
2023/08/19 17:23:13;;;;;;;0.00;0.00;;;;;;;;;;6244337;28;20030;-87
2023/08/19 17:26:13;;;;;;;;;;;;;;;;;;6228884;28;20411;-87
2023/08/19 17:29:13;;;;;;;0.00;0.00;;;;;;;;;;6246298;28;19913;-87
2023/08/19 17:32:14;;;;;;;0.00;0.00;;;;;;;;;;6239159;28;20017;-87
2023/08/19 17:35:14;;;;;;;0.00;0.00;;;;;;;;;;6246212;28;20023;-86
2023/08/19 17:38:14;;;;;;;0.00;0.00;;;;;;;;;;6249546;28;20017;-87
2023/08/19 17:41:14;;;;;;;0.00;0.00;;;;;;;;;;6246451;28;20017;-87
2023/08/19 17:44:18;;;;;;;0.00;0.00;;;;;;;;;;6252633;28;20025;-87
2023/08/19 17:47:19;;;;;;;0.00;0.00;;;;;;;;;;6240230;28;20041;-86
2023/08/19 17:50:19;;;;;;;0.00;0.00;;;;;;;;;;6227410;28;20456;-86
2023/08/19 17:53:19;;;;;;;0.00;0.00;;;;;;;;;;6249531;28;20033;-86
2023/08/19 17:56:20;;;;;;;0.00;0.00;;;;;;;;;;6251001;28;20033;-86
2023/08/19 17:59:20;;;;;;;0.00;0.00;;;;;;;;;;6247278;28;20400;-86
2023/08/19 18:02:20;;;;;;;0.00;0.00;;;;;;;;;;6241414;28;20109;-86
2023/08/19 18:05:20;;;;;;;0.00;0.00;;;;;;;;;;6226630;28;20033;-87
2023/08/19 18:08:20;;;;;;;0.00;0.00;;;;;;;;;;6244928;28;20018;-86